createdAt,value
2023-01-01T00:01:15.538Z,101531.72
2023-01-01T00:04:18.247Z,101523.94
2023-01-01T00:07:20.471Z,101528.31
2023-01-01T00:10:28.670Z,101528.31
2023-01-01T00:13:31.656Z,101527.59
2023-01-01T00:16:35.103Z,101538.16
2023-01-01T00:19:37.364Z,101531.97
2023-01-01T00:22:56.312Z,101528.44
2023-01-01T00:25:59.044Z,101537.12
2023-01-01T00:29:01.771Z,101530.12
2023-01-01T00:32:05.662Z,101530.16
2023-01-01T00:35:09.839Z,101515.34
2023-01-01T00:38:12.009Z,101528.47
2023-01-01T00:41:16.003Z,101517.12
2023-01-01T00:44:18.131Z,101524.06
2023-01-01T00:47:20.556Z,101530.41
2023-01-01T00:50:23.283Z,101533.94
2023-01-01T00:53:25.836Z,101524.09
2023-01-01T00:56:28.152Z,101533.62
2023-01-01T00:59:30.622Z,101530.41
2023-01-01T01:02:33.156Z,101528.84
2023-01-01T01:05:38.494Z,101535.78
2023-01-01T01:08:43.370Z,101527.19
2023-01-01T01:11:45.951Z,101537.75
2023-01-01T01:14:48.203Z,101527.41
2023-01-01T01:17:51.631Z,101536.19
2023-01-01T01:20:54.923Z,101532.84
2023-01-01T01:24:02.722Z,101525.94
2023-01-01T01:27:04.870Z,101532.13
2023-01-01T01:30:07.981Z,101539.16
2023-01-01T01:33:10.320Z,101533.94
2023-01-01T01:36:14.236Z,101539.16
2023-01-01T01:39:16.363Z,101531.38
2023-01-01T01:42:18.780Z,101533.25
2023-01-01T01:45:21.161Z,101530.78
2023-01-01T01:48:25.070Z,101526.50
2023-01-01T01:51:32.678Z,101540.41
2023-01-01T01:54:35.348Z,101528.22
2023-01-01T01:57:39.133Z,101517.75
2023-01-01T02:00:41.775Z,101527.44
2023-01-01T02:04:00.918Z,101530.88
2023-01-01T02:07:03.321Z,101532.81
2023-01-01T02:10:06.503Z,101533.00
2023-01-01T02:13:09.047Z,101537.44
2023-01-01T02:16:23.709Z,101540.09
2023-01-01T02:19:44.931Z,101533.12
2023-01-01T02:23:12.610Z,101533.22
2023-01-01T02:26:18.464Z,101532.25
2023-01-01T02:29:33.730Z,101529.72
2023-01-01T02:32:45.342Z,101541.19
2023-01-01T02:35:54.697Z,101552.53
2023-01-01T02:39:00.304Z,101554.38
2023-01-01T02:42:07.017Z,101557.78
2023-01-01T02:45:10.623Z,101545.50
2023-01-01T02:48:37.127Z,101544.91
2023-01-01T02:51:51.895Z,101547.50
2023-01-01T02:55:04.611Z,101552.78
2023-01-01T02:58:59.436Z,101555.37
2023-01-01T03:02:12.028Z,101542.28
2023-01-01T03:05:23.233Z,101543.09
2023-01-01T03:08:37.855Z,101537.16
2023-01-01T03:11:50.443Z,101531.97
2023-01-01T03:15:01.594Z,101529.50
2023-01-01T03:18:37.319Z,101533.88
2023-01-01T03:22:04.615Z,101533.91
2023-01-01T03:25:11.461Z,101534.63
2023-01-01T03:28:34.181Z,101533.75
2023-01-01T03:31:37.868Z,101553.78
2023-01-01T03:34:46.814Z,101549.91
2023-01-01T03:37:51.245Z,101536.22
2023-01-01T03:41:00.319Z,101526.94
2023-01-01T03:44:10.913Z,101530.06
2023-01-01T03:47:14.463Z,101530.72
2023-01-01T03:50:17.720Z,101539.16
2023-01-01T03:53:41.475Z,101533.62
2023-01-01T03:56:48.950Z,101530.81
2023-01-01T04:00:04.683Z,101531.75
2023-01-01T04:03:23.592Z,101529.19
2023-01-01T04:06:26.165Z,101525.44
2023-01-01T04:09:36.344Z,101530.66
2023-01-01T04:12:38.945Z,101527.06
2023-01-01T04:15:41.497Z,101533.06
2023-01-01T04:18:44.021Z,101528.63
2023-01-01T04:21:46.204Z,101532.94
2023-01-01T04:24:48.735Z,101533.06
2023-01-01T04:27:50.912Z,101526.94
2023-01-01T04:33:55.165Z,101537.47
2023-01-01T04:36:57.625Z,101534.78
2023-01-01T04:39:59.796Z,101531.84
2023-01-01T04:43:02.277Z,101524.19
2023-01-01T04:46:05.011Z,101523.34
2023-01-01T04:49:07.455Z,101525.19
2023-01-01T04:52:09.723Z,101515.66
2023-01-01T04:55:12.208Z,101532.94
2023-01-01T04:58:14.356Z,101537.28
2023-01-01T05:01:20.536Z,101535.56
2023-01-01T05:04:23.044Z,101540.09
2023-01-01T05:07:25.687Z,101540.09
2023-01-01T05:10:27.923Z,101545.66
2023-01-01T05:13:30.455Z,101537.59
2023-01-01T05:16:35.528Z,101531.38
2023-01-01T05:19:38.097Z,101537.28
2023-01-01T05:22:40.278Z,101533.88
2023-01-01T05:25:43.253Z,101537.28
2023-01-01T05:28:46.288Z,101530.38
2023-01-01T05:31:48.776Z,101535.06
2023-01-01T05:34:51.613Z,101533.34
2023-01-01T05:37:55.286Z,101537.78
2023-01-01T05:40:57.904Z,101542.00
2023-01-01T05:44:02.918Z,101547.88
2023-01-01T05:47:05.102Z,101546.41
2023-01-01T05:53:09.227Z,101547.19
2023-01-01T05:56:13.871Z,101549.09
2023-01-01T05:59:16.033Z,101551.28
2023-01-01T06:02:18.606Z,101557.44
2023-01-01T06:05:21.528Z,101571.03
2023-01-01T06:08:23.709Z,101574.59
2023-01-01T06:11:27.021Z,101569.16
2023-01-01T06:14:29.473Z,101576.47
2023-01-01T06:17:33.631Z,101581.69
2023-01-01T06:20:35.799Z,101600.97
2023-01-01T06:23:39.255Z,101605.44
2023-01-01T06:26:41.473Z,101608.03
2023-01-01T06:29:43.994Z,101609.16
2023-01-01T06:32:46.254Z,101617.84
2023-01-01T06:35:48.687Z,101618.72
2023-01-01T06:38:53.850Z,101627.38
2023-01-01T06:41:56.328Z,101629.44
2023-01-01T06:44:58.579Z,101626.97
2023-01-01T06:48:01.079Z,101627.72
2023-01-01T06:51:15.292Z,101621.41
2023-01-01T06:54:17.730Z,101633.53
2023-01-01T06:57:20.133Z,101636.75
2023-01-01T07:00:22.605Z,101637.53
2023-01-01T07:03:24.849Z,101640.84
2023-01-01T07:06:29.229Z,101642.38
2023-01-01T07:09:31.429Z,101635.28
2023-01-01T07:12:34.216Z,101629.06
2023-01-01T07:15:36.428Z,101627.41
2023-01-01T07:18:39.138Z,101628.06
2023-01-01T07:21:45.537Z,101631.34
2023-01-01T07:24:48.387Z,101630.22
2023-01-01T07:27:50.565Z,101626.59
2023-01-01T07:30:54.308Z,101634.13
2023-01-01T07:33:56.601Z,101633.00
2023-01-01T07:36:59.610Z,101629.44
2023-01-01T07:40:01.854Z,101635.25
2023-01-01T07:43:04.792Z,101629.97
2023-01-01T07:46:06.964Z,101635.91
2023-01-01T07:49:09.454Z,101635.72
2023-01-01T07:52:11.628Z,101646.31
2023-01-01T07:55:15.915Z,101649.63
2023-01-01T07:58:18.086Z,101640.25
2023-01-01T08:01:20.837Z,101648.06
2023-01-01T08:04:23.551Z,101659.91
2023-01-01T08:07:25.804Z,101674.37
2023-01-01T08:10:28.344Z,101672.34
2023-01-01T08:13:30.596Z,101676.03
2023-01-01T08:16:33.131Z,101673.66
2023-01-01T08:19:35.383Z,101683.66
2023-01-01T08:22:37.884Z,101669.94
2023-01-01T08:25:40.136Z,101686.88
2023-01-01T08:28:43.431Z,101695.47
2023-01-01T08:31:45.884Z,101693.59
2023-01-01T08:34:48.408Z,101698.03
2023-01-01T08:37:50.547Z,101697.00
2023-01-01T08:40:53.335Z,101694.94
2023-01-01T08:43:55.534Z,101697.41
2023-01-01T08:46:58.035Z,101685.78
2023-01-01T08:50:00.283Z,101700.72
2023-01-01T08:53:03.146Z,101700.50
2023-01-01T08:56:10.767Z,101697.78
2023-01-01T08:59:13.262Z,101693.25
2023-01-01T09:02:15.617Z,101690.47
2023-01-01T09:05:18.208Z,101684.22
2023-01-01T09:08:21.563Z,101692.41
2023-01-01T09:11:25.305Z,101695.09
2023-01-01T09:14:27.404Z,101679.34
2023-01-01T09:17:29.851Z,101677.25
2023-01-01T09:20:32.099Z,101691.16
2023-01-01T09:23:34.570Z,101694.81
2023-01-01T09:26:36.795Z,101694.87
2023-01-01T09:29:39.279Z,101697.19
2023-01-01T09:32:41.467Z,101700.06
2023-01-01T09:35:44.466Z,101695.00
2023-01-01T09:38:51.359Z,101692.06
2023-01-01T09:42:24.907Z,101693.47
2023-01-01T09:45:31.964Z,101689.09
2023-01-01T09:48:40.483Z,101690.56
2023-01-01T09:51:51.038Z,101687.56
2023-01-01T09:55:00.863Z,101675.91
2023-01-01T09:58:03.096Z,101691.00
2023-01-01T10:01:41.287Z,101687.00
2023-01-01T10:04:59.429Z,101684.84
2023-01-01T10:08:28.700Z,101690.19
2023-01-01T10:11:49.507Z,101686.84
2023-01-01T10:15:04.216Z,101688.19
2023-01-01T10:18:19.917Z,101696.22
2023-01-01T10:21:27.283Z,101698.09
2023-01-01T10:24:47.481Z,101688.56
2023-01-01T10:28:11.562Z,101687.53
2023-01-01T10:31:30.605Z,101680.16
2023-01-01T10:34:34.337Z,101668.69
2023-01-01T10:37:38.161Z,101678.19
2023-01-01T10:40:40.394Z,101673.78
2023-01-01T10:43:44.467Z,101668.94
2023-01-01T10:46:56.528Z,101672.41
2023-01-01T10:50:01.339Z,101663.84
2023-01-01T10:53:03.525Z,101658.19
2023-01-01T10:56:11.729Z,101649.47
2023-01-01T10:59:35.466Z,101650.91
2023-01-01T11:02:38.141Z,101652.09
2023-01-01T11:05:40.543Z,101643.78
2023-01-01T11:08:52.736Z,101637.53
2023-01-01T11:12:07.156Z,101626.69
2023-01-01T11:15:32.576Z,101630.47
2023-01-01T11:18:38.115Z,101617.72
2023-01-01T11:21:47.263Z,101600.63
2023-01-01T11:25:00.950Z,101588.12
2023-01-01T11:28:15.665Z,101585.78
2023-01-01T11:31:20.062Z,101587.84
2023-01-01T11:34:29.920Z,101601.22
2023-01-01T11:37:38.948Z,101606.91
2023-01-01T11:40:47.762Z,101602.84
2023-01-01T11:43:50.126Z,101607.84
2023-01-01T11:46:52.728Z,101614.09
2023-01-01T11:50:13.716Z,101609.56
2023-01-01T11:53:22.151Z,101594.25
2023-01-01T11:56:24.538Z,101590.22
2023-01-01T11:59:41.566Z,101581.59
2023-01-01T12:03:13.436Z,101579.41
2023-01-01T12:06:35.697Z,101580.41
2023-01-01T12:09:51.129Z,101565.69
2023-01-01T12:13:00.775Z,101567.38
2023-01-01T12:16:12.520Z,101566.69
2023-01-01T12:19:24.746Z,101575.22
2023-01-01T12:22:27.276Z,101570.56
2023-01-01T12:25:39.319Z,101566.63
2023-01-01T12:29:00.255Z,101568.19
2023-01-01T12:32:28.705Z,101567.34
2023-01-01T12:35:37.372Z,101557.34
2023-01-01T12:38:52.145Z,101544.34
2023-01-01T12:42:14.272Z,101544.72
2023-01-01T12:45:41.551Z,101548.94
2023-01-01T12:49:36.690Z,101548.50
2023-01-01T12:53:03.539Z,101545.75
2023-01-01T12:56:23.708Z,101550.59
2023-01-01T12:59:34.485Z,101553.69
2023-01-01T13:02:41.045Z,101563.41
2023-01-01T13:05:48.528Z,101561.09
2023-01-01T13:08:56.756Z,101559.03
2023-01-01T13:12:04.453Z,101557.62
2023-01-01T13:15:34.802Z,101558.22
2023-01-01T13:18:38.375Z,101559.47
2023-01-01T13:21:40.542Z,101558.56
2023-01-01T13:24:43.057Z,101567.12
2023-01-01T13:27:57.825Z,101576.81
2023-01-01T13:31:00.323Z,101565.94
2023-01-01T13:34:30.468Z,101564.63
2023-01-01T13:37:42.843Z,101575.28
2023-01-01T13:40:49.882Z,101584.03
2023-01-01T13:43:54.451Z,101585.94
2023-01-01T13:47:55.824Z,101577.34
2023-01-01T13:51:33.654Z,101574.41
2023-01-01T13:55:03.378Z,101586.94
2023-01-01T13:58:43.603Z,101592.59
2023-01-01T14:01:55.677Z,101585.28
2023-01-01T14:05:48.800Z,101592.31
2023-01-01T14:09:11.164Z,101601.94
2023-01-01T14:12:19.129Z,101604.13
2023-01-01T14:15:29.697Z,101613.97
2023-01-01T14:18:36.469Z,101605.25
2023-01-01T14:21:39.045Z,101604.06
2023-01-01T14:24:45.166Z,101596.59
2023-01-01T14:27:47.397Z,101598.50
2023-01-01T14:30:50.480Z,101606.56
2023-01-01T14:33:52.964Z,101602.09
2023-01-01T14:36:58.210Z,101594.50
2023-01-01T14:40:17.708Z,101606.37
2023-01-01T14:43:20.323Z,101623.34
2023-01-01T14:46:25.485Z,101628.09
2023-01-01T14:49:32.227Z,101610.09
2023-01-01T14:52:35.664Z,101601.88
2023-01-01T14:55:41.955Z,101601.75
2023-01-01T14:58:44.249Z,101608.53
2023-01-01T15:01:46.882Z,101612.69
2023-01-01T15:04:49.295Z,101613.84
2023-01-01T15:08:02.930Z,101603.81
2023-01-01T15:11:05.280Z,101605.94
2023-01-01T15:14:31.941Z,101606.13
2023-01-01T15:17:46.599Z,101618.25
2023-01-01T15:20:54.835Z,101621.62
2023-01-01T15:24:01.614Z,101627.66
2023-01-01T15:27:06.674Z,101625.25
2023-01-01T15:30:27.104Z,101618.88
2023-01-01T15:33:29.608Z,101621.47
2023-01-01T15:36:32.593Z,101625.75
2023-01-01T15:39:49.103Z,101624.03
2023-01-01T15:42:54.375Z,101630.91
2023-01-01T15:46:00.332Z,101639.66
2023-01-01T15:49:02.762Z,101650.94
2023-01-01T15:52:14.653Z,101653.34
2023-01-01T15:55:17.834Z,101645.25
2023-01-01T15:58:48.358Z,101643.06
2023-01-01T16:01:51.487Z,101644.72
2023-01-01T16:04:54.550Z,101654.66
2023-01-01T16:08:05.117Z,101646.75
2023-01-01T16:11:07.681Z,101655.44
2023-01-01T16:14:09.898Z,101652.75
2023-01-01T16:17:15.872Z,101650.97
2023-01-01T16:20:21.509Z,101648.41
2023-01-01T16:23:24.117Z,101648.94
2023-01-01T16:26:26.531Z,101653.34
2023-01-01T16:29:28.936Z,101664.63
2023-01-01T16:32:31.223Z,101664.63
2023-01-01T16:35:33.641Z,101655.19
2023-01-01T16:38:35.837Z,101665.50
2023-01-01T16:41:42.590Z,101670.69
2023-01-01T16:44:46.374Z,101661.25
2023-01-01T16:47:48.952Z,101664.44
2023-01-01T16:50:52.217Z,101675.13
2023-01-01T16:53:55.415Z,101673.59
2023-01-01T16:56:57.552Z,101683.28
2023-01-01T17:00:00.103Z,101691.31
2023-01-01T17:03:02.332Z,101678.75
2023-01-01T17:06:10.014Z,101680.13
2023-01-01T17:09:13.606Z,101682.91
2023-01-01T17:12:16.285Z,101683.50
2023-01-01T17:15:18.531Z,101679.03
2023-01-01T17:18:39.529Z,101679.69
2023-01-01T17:21:43.291Z,101677.37
2023-01-01T17:24:45.884Z,101684.44
2023-01-01T17:27:48.034Z,101686.88
2023-01-01T17:30:52.758Z,101678.75
2023-01-01T17:33:55.110Z,101675.91
2023-01-01T17:36:57.601Z,101680.75
2023-01-01T17:40:00.194Z,101678.69
2023-01-01T17:43:02.608Z,101674.25
2023-01-01T17:46:32.984Z,101683.03
2023-01-01T17:49:35.666Z,101680.00
2023-01-01T17:52:37.796Z,101676.63
2023-01-01T17:55:40.533Z,101684.44
2023-01-01T17:58:44.323Z,101684.50
2023-01-01T18:01:46.908Z,101685.88
2023-01-01T18:04:49.482Z,101686.94
2023-01-01T18:07:51.932Z,101691.28
2023-01-01T18:10:55.718Z,101681.72
2023-01-01T18:13:59.742Z,101682.38
2023-01-01T18:17:02.385Z,101687.72
2023-01-01T18:20:05.130Z,101690.06
2023-01-01T18:23:07.570Z,101695.47
2023-01-01T18:26:11.067Z,101695.63
2023-01-01T18:29:13.717Z,101684.41
2023-01-01T18:32:15.920Z,101694.00
2023-01-01T18:35:18.566Z,101686.22
2023-01-01T18:38:21.039Z,101690.66
2023-01-01T18:41:41.837Z,101697.72
2023-01-01T18:44:44.533Z,101689.00
2023-01-01T18:47:47.663Z,101694.34
2023-01-01T18:50:49.877Z,101689.84
2023-01-01T18:53:57.525Z,101688.28
2023-01-01T18:57:09.868Z,101693.34
2023-01-01T19:00:17.932Z,101698.37
2023-01-01T19:03:28.615Z,101703.00
2023-01-01T19:06:33.364Z,101708.37
2023-01-01T19:09:36.882Z,101697.16
2023-01-01T19:12:39.691Z,101696.34
2023-01-01T19:15:45.913Z,101692.59
2023-01-01T19:18:48.540Z,101695.13
2023-01-01T19:21:57.393Z,101689.06
2023-01-01T19:25:02.772Z,101684.84
2023-01-01T19:28:37.620Z,101685.63
2023-01-01T19:31:40.470Z,101674.94
2023-01-01T19:34:42.853Z,101686.34
2023-01-01T19:37:45.459Z,101678.50
2023-01-01T19:40:47.636Z,101685.50
2023-01-01T19:43:50.451Z,101684.37
2023-01-01T19:46:52.681Z,101685.50
2023-01-01T19:49:55.814Z,101680.22
2023-01-01T19:52:58.082Z,101672.50
2023-01-01T19:56:00.540Z,101670.66
2023-01-01T19:59:02.694Z,101679.22
2023-01-01T20:05:31.714Z,101671.88
2023-01-01T20:08:40.779Z,101668.31
2023-01-01T20:11:43.252Z,101672.97
2023-01-01T20:14:45.508Z,101678.09
2023-01-01T20:17:48.578Z,101672.97
2023-01-01T20:21:13.583Z,101679.78
2023-01-01T20:24:17.582Z,101674.00
2023-01-01T20:27:25.051Z,101675.53
2023-01-01T20:30:27.535Z,101676.59
2023-01-01T20:33:29.682Z,101673.59
2023-01-01T20:36:50.852Z,101675.62
2023-01-01T20:39:53.112Z,101682.66
2023-01-01T20:42:55.554Z,101680.75
2023-01-01T20:45:57.734Z,101672.81
2023-01-01T20:49:00.216Z,101679.03
2023-01-01T20:52:02.527Z,101677.25
2023-01-01T20:55:05.432Z,101672.78
2023-01-01T20:58:07.606Z,101674.19
2023-01-01T21:01:10.282Z,101680.75
2023-01-01T21:04:12.526Z,101677.16
2023-01-01T21:07:15.017Z,101667.53
2023-01-01T21:10:17.154Z,101669.22
2023-01-01T21:13:19.785Z,101666.00
2023-01-01T21:16:30.519Z,101662.03
2023-01-01T21:19:33.016Z,101669.09
2023-01-01T21:22:35.211Z,101670.94
2023-01-01T21:25:51.022Z,101669.22
2023-01-01T21:28:54.529Z,101662.03
2023-01-01T21:32:12.337Z,101675.53
2023-01-01T21:35:34.218Z,101671.81
2023-01-01T21:38:37.105Z,101670.53
2023-01-01T21:41:39.271Z,101670.87
2023-01-01T21:44:41.783Z,101671.75
2023-01-01T21:47:43.905Z,101666.69
2023-01-01T21:50:48.174Z,101669.16
2023-01-01T21:53:51.267Z,101661.97
2023-01-01T21:57:02.024Z,101664.75
2023-01-01T22:00:06.735Z,101666.53
2023-01-01T22:03:16.011Z,101667.53
2023-01-01T22:06:18.640Z,101670.81
2023-01-01T22:09:33.451Z,101663.94
2023-01-01T22:12:36.748Z,101653.16
2023-01-01T22:15:41.227Z,101654.41
2023-01-01T22:18:43.857Z,101661.34
2023-01-01T22:21:47.688Z,101665.09
2023-01-01T22:24:56.245Z,101668.00
2023-01-01T22:28:19.006Z,101662.97
2023-01-01T22:31:28.268Z,101650.87
2023-01-01T22:34:30.652Z,101645.88
2023-01-01T22:37:38.275Z,101647.72
2023-01-01T22:40:40.790Z,101638.38
2023-01-01T22:43:46.751Z,101638.50
2023-01-01T22:46:49.055Z,101638.69
2023-01-01T22:49:52.682Z,101642.44
2023-01-01T22:52:54.822Z,101633.19
2023-01-01T22:55:57.259Z,101625.44
2023-01-01T22:58:59.429Z,101629.94
2023-01-01T23:02:03.151Z,101625.25
2023-01-01T23:05:06.127Z,101623.13
2023-01-01T23:08:08.705Z,101616.06
2023-01-01T23:11:11.342Z,101618.09
2023-01-01T23:14:38.441Z,101613.69
2023-01-01T23:17:41.395Z,101621.44
2023-01-01T23:20:43.840Z,101615.84
2023-01-01T23:23:50.333Z,101612.66
2023-01-01T23:26:53.398Z,101611.59
2023-01-01T23:29:55.610Z,101602.09
2023-01-01T23:32:59.461Z,101603.66
2023-01-01T23:36:02.739Z,101599.47
2023-01-01T23:39:06.719Z,101607.75
2023-01-01T23:42:09.079Z,101596.72
2023-01-01T23:45:11.909Z,101601.38
2023-01-01T23:48:15.622Z,101599.03
2023-01-01T23:51:19.220Z,101589.44
2023-01-01T23:54:21.640Z,101584.94
2023-01-01T23:57:24.263Z,101589.44
